createdAt,value
2022-08-30T00:00:08.869Z,68.12
2022-08-30T00:02:37.885Z,68.47
2022-08-30T00:05:06.290Z,68.36
2022-08-30T00:07:34.589Z,69.34
2022-08-30T00:10:02.200Z,69.47
2022-08-30T00:12:30.301Z,69.52
2022-08-30T00:14:58.116Z,68.72
2022-08-30T00:17:26.506Z,68.10
2022-08-30T00:19:56.780Z,68.63
2022-08-30T00:22:24.581Z,69.47
2022-08-30T00:24:53.073Z,67.88
2022-08-30T00:27:20.636Z,68.27
2022-08-30T00:29:48.248Z,68.11
2022-08-30T00:32:16.358Z,68.12
2022-08-30T00:34:44.027Z,68.82
2022-08-30T00:37:13.145Z,69.50
2022-08-30T00:39:40.785Z,68.62
2022-08-30T00:42:09.004Z,68.13
2022-08-30T00:44:36.828Z,69.12
2022-08-30T00:47:04.937Z,70.44
2022-08-30T00:49:34.486Z,70.98
2022-08-30T00:52:03.251Z,70.85
2022-08-30T00:54:36.980Z,71.16
2022-08-30T00:57:05.918Z,69.45
2022-08-30T00:59:34.443Z,69.70
2022-08-30T01:02:03.249Z,71.38
2022-08-30T01:04:32.686Z,71.77
2022-08-30T01:07:01.010Z,72.39
2022-08-30T01:09:29.729Z,73.39
2022-08-30T01:11:58.735Z,72.79
2022-08-30T01:14:27.084Z,72.25
2022-08-30T01:16:57.616Z,73.69
2022-08-30T01:19:36.152Z,73.45
2022-08-30T01:22:11.518Z,73.89
2022-08-30T01:24:40.564Z,73.89
2022-08-30T01:27:08.241Z,74.30
2022-08-30T01:29:36.549Z,74.17
2022-08-30T01:32:06.965Z,73.89
2022-08-30T01:34:34.606Z,73.62
2022-08-30T01:37:02.582Z,73.53
2022-08-30T01:39:30.504Z,74.31
2022-08-30T01:41:59.840Z,74.47
2022-08-30T01:44:27.463Z,73.89
2022-08-30T01:46:55.280Z,74.07
2022-08-30T01:49:26.037Z,73.96
2022-08-30T01:52:00.490Z,74.33
2022-08-30T01:54:36.597Z,74.75
2022-08-30T01:57:09.826Z,74.42
2022-08-30T01:59:38.021Z,73.84
2022-08-30T02:02:07.290Z,73.57
2022-08-30T02:04:36.626Z,72.96
2022-08-30T02:07:04.866Z,72.45
2022-08-30T02:09:32.561Z,73.24
2022-08-30T02:12:00.219Z,74.22
2022-08-30T02:14:29.226Z,74.50
2022-08-30T02:16:56.809Z,75.37
2022-08-30T02:19:24.500Z,75.99
2022-08-30T02:21:52.436Z,76.06
2022-08-30T02:24:20.055Z,75.55
2022-08-30T02:26:48.542Z,75.58
2022-08-30T02:29:16.364Z,75.43
2022-08-30T02:31:45.324Z,75.26
2022-08-30T02:34:13.130Z,76.06
2022-08-30T02:36:41.731Z,76.15
2022-08-30T02:39:09.817Z,77.38
2022-08-30T02:41:38.181Z,77.01
2022-08-30T02:44:06.335Z,76.98
2022-08-30T02:46:34.755Z,76.15
2022-08-30T02:49:29.954Z,76.48
2022-08-30T02:51:52.897Z,76.85
2022-08-30T02:54:20.628Z,77.00
2022-08-30T02:56:48.532Z,76.83
2022-08-30T02:59:16.564Z,77.19
2022-08-30T03:01:44.331Z,76.66
2022-08-30T03:04:13.437Z,77.55
2022-08-30T03:06:41.074Z,77.56
2022-08-30T03:09:08.810Z,77.76
2022-08-30T03:11:37.527Z,77.84
2022-08-30T03:14:05.337Z,77.01
2022-08-30T03:16:33.071Z,77.40
2022-08-30T03:19:00.750Z,76.48
2022-08-30T03:21:29.792Z,76.83
2022-08-30T03:23:57.436Z,76.66
2022-08-30T03:26:25.061Z,76.98
2022-08-30T03:28:53.121Z,76.71
2022-08-30T03:31:20.869Z,77.07
2022-08-30T03:33:48.553Z,76.68
2022-08-30T03:36:16.143Z,76.56
2022-08-30T03:38:45.124Z,76.84
2022-08-30T03:41:12.760Z,76.50
2022-08-30T03:43:40.800Z,77.02
2022-08-30T03:46:12.039Z,76.93
2022-08-30T03:48:39.688Z,77.22
2022-08-30T03:51:07.577Z,78.22
2022-08-30T03:53:35.552Z,78.44
2022-08-30T03:56:05.158Z,78.46
2022-08-30T03:58:33.069Z,77.68
2022-08-30T04:01:00.931Z,79.07
2022-08-30T04:03:29.312Z,78.93
2022-08-30T04:05:57.607Z,77.73
2022-08-30T04:08:25.832Z,77.38
2022-08-30T04:10:54.313Z,77.64
2022-08-30T04:13:25.214Z,77.98
2022-08-30T04:15:52.927Z,77.50
2022-08-30T04:18:20.561Z,77.64
2022-08-30T04:20:48.327Z,76.80
2022-08-30T04:23:16.686Z,77.04
2022-08-30T04:25:44.585Z,76.94
2022-08-30T04:28:12.757Z,76.42
2022-08-30T04:30:43.089Z,76.65
2022-08-30T04:33:11.065Z,76.70
2022-08-30T04:35:43.044Z,76.79
2022-08-30T04:38:11.077Z,76.75
2022-08-30T04:40:38.857Z,76.63
2022-08-30T04:43:06.558Z,76.18
2022-08-30T04:45:34.290Z,76.77
2022-08-30T04:48:03.812Z,77.00
2022-08-30T04:50:31.548Z,77.77
2022-08-30T04:52:59.694Z,78.05
2022-08-30T04:55:28.116Z,77.61
2022-08-30T04:57:56.380Z,77.42
2022-08-30T05:00:24.132Z,77.60
2022-08-30T05:02:53.888Z,77.79
2022-08-30T05:05:41.713Z,78.47
2022-08-30T05:08:10.990Z,78.46
2022-08-30T05:10:40.569Z,78.09
2022-08-30T05:13:08.589Z,78.12
2022-08-30T05:15:37.241Z,78.63
2022-08-30T05:18:05.772Z,78.27
2022-08-30T05:20:35.349Z,77.68
2022-08-30T05:23:03.098Z,77.42
2022-08-30T05:25:34.398Z,78.14
2022-08-30T05:28:02.077Z,77.83
2022-08-30T05:30:32.938Z,77.52
2022-08-30T05:33:00.629Z,77.39
2022-08-30T05:35:28.294Z,77.04
2022-08-30T05:37:57.627Z,76.71
2022-08-30T05:40:26.018Z,76.72
2022-08-30T05:42:56.909Z,76.05
2022-08-30T05:45:24.859Z,75.72
2022-08-30T05:47:52.473Z,76.12
2022-08-30T05:50:20.361Z,75.70
2022-08-30T05:52:47.974Z,75.46
2022-08-30T05:55:18.898Z,75.26
2022-08-30T05:57:46.612Z,75.12
2022-08-30T06:00:17.543Z,74.52
2022-08-30T06:02:45.848Z,76.50
2022-08-30T06:05:14.410Z,77.35
2022-08-30T06:07:43.295Z,76.47
2022-08-30T06:10:12.222Z,75.91
2022-08-30T06:12:41.534Z,75.43
2022-08-30T06:15:10.126Z,75.64
2022-08-30T06:17:39.622Z,74.87
2022-08-30T06:20:08.970Z,74.61
2022-08-30T06:22:38.591Z,75.52
2022-08-30T06:25:06.998Z,75.16
2022-08-30T06:27:34.653Z,74.00
2022-08-30T06:30:04.170Z,74.65
2022-08-30T06:32:31.760Z,74.47
2022-08-30T06:34:59.534Z,73.90
2022-08-30T06:37:30.066Z,74.12
2022-08-30T06:39:58.465Z,74.41
2022-08-30T06:42:31.616Z,73.43
2022-08-30T06:44:59.341Z,72.97
2022-08-30T06:47:28.636Z,72.37
2022-08-30T06:49:56.380Z,71.39
2022-08-30T06:52:24.068Z,71.03
2022-08-30T06:54:51.845Z,70.01
2022-08-30T06:57:19.475Z,69.45
2022-08-30T06:59:47.126Z,68.96
2022-08-30T07:02:14.828Z,68.09
2022-08-30T07:04:43.897Z,65.32
2022-08-30T07:07:11.988Z,66.17
2022-08-30T07:09:43.093Z,64.37
2022-08-30T07:12:11.926Z,65.02
2022-08-30T07:14:40.713Z,64.33
2022-08-30T07:17:24.125Z,63.77
2022-08-30T07:19:53.338Z,63.38
2022-08-30T07:22:22.148Z,63.96
2022-08-30T07:24:50.153Z,63.36
2022-08-30T07:27:17.737Z,62.93
2022-08-30T07:29:45.536Z,62.48
2022-08-30T07:32:13.314Z,60.81
2022-08-30T07:34:41.619Z,61.37
2022-08-30T07:37:10.611Z,61.86
2022-08-30T07:39:48.015Z,61.06
2022-08-30T07:42:16.191Z,60.74
2022-08-30T07:44:43.846Z,60.50
2022-08-30T07:47:11.507Z,60.37
2022-08-30T07:49:39.363Z,59.58
2022-08-30T07:52:07.041Z,58.45
2022-08-30T07:54:36.088Z,57.38
2022-08-30T07:57:03.759Z,57.08
2022-08-30T07:59:34.193Z,57.56
2022-08-30T08:02:03.765Z,57.15
2022-08-30T08:04:31.564Z,56.65
2022-08-30T08:06:59.249Z,55.97
2022-08-30T08:09:26.818Z,54.88
2022-08-30T08:11:55.912Z,55.12
2022-08-30T08:14:24.206Z,54.44
2022-08-30T08:16:51.856Z,54.07
2022-08-30T08:19:19.603Z,53.90
2022-08-30T08:21:48.642Z,54.91
2022-08-30T08:24:18.045Z,53.95
2022-08-30T08:26:45.684Z,53.01
2022-08-30T08:29:14.644Z,53.17
2022-08-30T08:31:43.113Z,53.06
2022-08-30T08:34:11.619Z,52.91
2022-08-30T08:36:39.352Z,52.11
2022-08-30T08:39:08.913Z,52.15
2022-08-30T08:41:50.673Z,51.82
2022-08-30T08:44:34.731Z,51.57
2022-08-30T08:47:12.285Z,50.72
2022-08-30T08:49:44.772Z,51.09
2022-08-30T08:52:38.384Z,52.12
2022-08-30T08:55:10.477Z,50.12
2022-08-30T08:57:38.288Z,50.53
2022-08-30T09:00:09.031Z,51.33
2022-08-30T09:02:42.696Z,49.50
2022-08-30T09:05:14.393Z,48.00
2022-08-30T09:07:47.856Z,48.92
2022-08-30T09:10:18.313Z,47.35
2022-08-30T09:12:50.737Z,47.36
2022-08-30T09:15:23.884Z,47.35
2022-08-30T09:17:53.102Z,47.85
2022-08-30T09:20:30.361Z,47.44
2022-08-30T09:22:58.913Z,48.46
2022-08-30T09:25:29.916Z,48.26
2022-08-30T09:28:11.774Z,47.60
2022-08-30T09:30:41.336Z,47.10
2022-08-30T09:33:20.786Z,47.98
2022-08-30T09:35:52.041Z,48.30
2022-08-30T09:38:22.581Z,47.73
2022-08-30T09:40:52.129Z,48.45
2022-08-30T09:46:16.618Z,45.74
2022-08-30T09:48:45.837Z,45.50
2022-08-30T09:51:45.727Z,44.89
2022-08-30T09:54:20.686Z,44.01
2022-08-30T09:57:03.165Z,44.04
2022-08-30T09:59:42.223Z,44.08
2022-08-30T10:02:28.847Z,43.27
2022-08-30T10:05:06.528Z,43.39
2022-08-30T10:07:42.785Z,42.92
2022-08-30T10:10:17.336Z,44.08
2022-08-30T10:12:54.450Z,41.98
2022-08-30T10:15:30.789Z,42.39
2022-08-30T10:18:08.440Z,42.02
2022-08-30T10:20:42.732Z,42.11
2022-08-30T10:23:16.042Z,41.99
2022-08-30T10:25:49.954Z,41.92
2022-08-30T10:28:23.443Z,43.76
2022-08-30T10:30:57.146Z,42.85
2022-08-30T10:33:31.948Z,41.22
2022-08-30T10:36:04.401Z,41.15
2022-08-30T10:38:40.172Z,40.18
2022-08-30T10:41:17.077Z,40.67
2022-08-30T10:43:55.419Z,39.66
2022-08-30T10:46:30.571Z,38.97
2022-08-30T10:49:01.888Z,38.59
2022-08-30T10:51:33.686Z,38.97
2022-08-30T10:54:09.144Z,38.38
2022-08-30T10:56:42.137Z,38.26
2022-08-30T10:59:11.995Z,36.32
2022-08-30T11:02:09.865Z,36.41
2022-08-30T11:05:08.576Z,34.89
2022-08-30T11:07:45.015Z,35.75
2022-08-30T11:10:33.901Z,34.42
2022-08-30T11:13:04.916Z,35.13
2022-08-30T11:15:36.435Z,34.67
2022-08-30T11:18:12.536Z,34.20
2022-08-30T11:20:44.782Z,34.75
2022-08-30T11:23:27.293Z,34.47
2022-08-30T11:26:01.894Z,34.22
2022-08-30T11:29:03.473Z,34.20
2022-08-30T11:31:42.268Z,33.57
2022-08-30T11:34:11.388Z,32.46
2022-08-30T11:37:09.555Z,32.64
2022-08-30T11:39:54.035Z,32.89
2022-08-30T11:42:35.673Z,32.67
2022-08-30T11:45:36.935Z,32.63
2022-08-30T11:48:07.309Z,32.68
2022-08-30T11:50:43.388Z,34.11
2022-08-30T11:53:24.814Z,32.04
2022-08-30T11:56:08.502Z,32.65
2022-08-30T11:58:48.910Z,31.92
2022-08-30T12:01:41.933Z,33.35
2022-08-30T12:04:15.027Z,34.41
2022-08-30T12:06:56.868Z,34.81
2022-08-30T12:10:04.579Z,34.40
2022-08-30T12:12:53.057Z,34.69
2022-08-30T12:15:53.244Z,35.09
2022-08-30T12:18:28.222Z,35.01
2022-08-30T12:21:01.587Z,34.25
2022-08-30T12:23:34.865Z,32.66
2022-08-30T12:26:15.927Z,32.49
2022-08-30T12:28:48.723Z,32.16
2022-08-30T12:31:19.706Z,31.38
2022-08-30T12:33:50.766Z,30.72
2022-08-30T12:36:35.241Z,30.50
2022-08-30T12:39:07.861Z,29.12
2022-08-30T12:41:35.728Z,28.50
2022-08-30T12:44:17.333Z,26.99
2022-08-30T12:46:48.280Z,26.73
2022-08-30T12:49:19.257Z,26.30
2022-08-30T12:51:47.673Z,26.17
2022-08-30T12:54:20.121Z,24.45
2022-08-30T12:57:19.056Z,24.71
2022-08-30T12:59:58.530Z,24.02
2022-08-30T13:02:29.898Z,24.71
2022-08-30T13:04:58.411Z,23.41
2022-08-30T13:07:32.901Z,22.55
2022-08-30T13:10:13.808Z,22.01
2022-08-30T13:12:41.674Z,22.15
2022-08-30T13:15:17.848Z,20.64
2022-08-30T13:17:46.720Z,20.34
2022-08-30T13:20:27.239Z,21.46
2022-08-30T13:23:03.753Z,20.44
2022-08-30T13:25:32.953Z,20.16
2022-08-30T13:28:01.877Z,19.58
2022-08-30T13:30:32.049Z,19.84
2022-08-30T13:33:01.189Z,20.01
2022-08-30T13:35:31.090Z,19.35
2022-08-30T13:38:01.691Z,18.97
2022-08-30T13:40:29.503Z,18.69
2022-08-30T13:42:58.788Z,18.04
2022-08-30T13:45:42.569Z,17.68
2022-08-30T13:48:13.635Z,17.07
2022-08-30T13:50:42.877Z,17.19
2022-08-30T13:53:11.174Z,17.61
2022-08-30T13:55:40.702Z,17.53
2022-08-30T13:58:08.449Z,17.11
2022-08-30T14:00:40.574Z,15.70
2022-08-30T14:03:08.275Z,15.70
2022-08-30T14:06:15.739Z,15.50
2022-08-30T14:08:48.798Z,15.96
2022-08-30T14:11:21.170Z,15.42
2022-08-30T14:16:41.349Z,15.59
2022-08-30T14:19:10.121Z,15.90
2022-08-30T14:21:40.457Z,15.97
2022-08-30T14:24:08.857Z,15.80
2022-08-30T14:26:39.431Z,15.54
2022-08-30T14:29:09.481Z,15.33
2022-08-30T14:31:38.282Z,14.77
2022-08-30T14:34:07.247Z,15.49
2022-08-30T14:36:36.499Z,14.87
2022-08-30T14:39:08.607Z,16.09
2022-08-30T14:41:40.125Z,16.31
2022-08-30T14:44:11.044Z,16.37
2022-08-30T14:46:38.784Z,15.98
2022-08-30T14:49:08.153Z,15.94
2022-08-30T14:51:39.256Z,15.84
2022-08-30T14:54:09.209Z,15.02
2022-08-30T14:56:39.050Z,15.04
2022-08-30T14:59:07.448Z,14.56
2022-08-30T15:01:37.307Z,14.61
2022-08-30T15:04:07.386Z,16.39
2022-08-30T15:06:36.771Z,15.88
2022-08-30T15:09:05.785Z,16.12
2022-08-30T15:11:35.646Z,16.54
2022-08-30T15:14:03.296Z,16.92
2022-08-30T15:16:34.787Z,17.08
2022-08-30T15:19:03.364Z,17.29
2022-08-30T15:21:33.656Z,16.65
2022-08-30T15:24:02.688Z,16.55
2022-08-30T15:26:30.637Z,16.32
2022-08-30T15:28:59.700Z,15.89
2022-08-30T15:31:29.104Z,16.26
2022-08-30T15:33:56.809Z,16.22
2022-08-30T15:36:24.754Z,16.80
2022-08-30T15:38:55.245Z,17.30
2022-08-30T15:41:23.911Z,17.56
2022-08-30T15:43:52.734Z,17.43
2022-08-30T15:46:24.033Z,17.83
2022-08-30T15:49:01.515Z,17.48
2022-08-30T15:51:30.805Z,16.95
2022-08-30T15:54:09.418Z,17.52
2022-08-30T15:56:40.140Z,18.94
2022-08-30T15:59:10.742Z,20.18
2022-08-30T16:01:39.811Z,21.62
2022-08-30T16:04:08.118Z,22.89
2022-08-30T16:06:37.541Z,22.95
2022-08-30T16:09:05.787Z,24.53
2022-08-30T16:11:34.074Z,24.58
2022-08-30T16:14:02.461Z,24.66
2022-08-30T16:16:31.873Z,25.15
2022-08-30T16:19:01.031Z,22.96
2022-08-30T16:21:30.495Z,23.19
2022-08-30T16:24:00.762Z,22.16
2022-08-30T16:26:30.286Z,22.91
2022-08-30T16:28:58.728Z,23.68
2022-08-30T16:31:28.550Z,24.67
2022-08-30T16:33:57.342Z,25.74
2022-08-30T16:36:33.013Z,25.54
2022-08-30T16:39:01.489Z,26.25
2022-08-30T16:41:29.344Z,26.77
2022-08-30T16:44:00.717Z,28.41
2022-08-30T16:46:28.885Z,28.62
2022-08-30T16:48:58.391Z,28.13
2022-08-30T16:51:29.024Z,28.07
2022-08-30T16:53:58.869Z,27.82
2022-08-30T16:56:29.517Z,27.57
2022-08-30T16:59:02.957Z,28.40
2022-08-30T17:01:34.671Z,28.78
2022-08-30T17:04:05.912Z,29.37
2022-08-30T17:06:33.721Z,29.72
2022-08-30T17:09:05.979Z,31.22
2022-08-30T17:11:33.824Z,31.49
2022-08-30T17:14:01.717Z,33.13
2022-08-30T17:16:30.683Z,33.34
2022-08-30T17:21:47.057Z,34.73
2022-08-30T17:24:16.039Z,35.30
2022-08-30T17:26:44.564Z,37.45
2022-08-30T17:29:12.892Z,38.42
2022-08-30T17:31:46.271Z,38.25
2022-08-30T17:34:21.050Z,39.72
2022-08-30T17:36:51.042Z,39.78
2022-08-30T17:39:20.067Z,40.38
2022-08-30T17:41:50.057Z,41.07
2022-08-30T17:44:19.066Z,42.00
2022-08-30T17:46:46.901Z,42.68
2022-08-30T17:49:15.086Z,42.89
2022-08-30T17:51:43.443Z,43.27
2022-08-30T17:54:12.674Z,43.60
2022-08-30T17:56:42.232Z,44.67
2022-08-30T17:59:11.448Z,44.97
2022-08-30T18:01:41.696Z,45.63
2022-08-30T18:04:10.656Z,45.97
2022-08-30T18:06:38.406Z,46.97
2022-08-30T18:09:09.072Z,47.35
2022-08-30T18:11:39.474Z,47.34
2022-08-30T18:14:10.840Z,47.61
2022-08-30T18:16:47.442Z,47.87
2022-08-30T18:19:21.400Z,47.73
2022-08-30T18:21:49.012Z,47.88
2022-08-30T18:24:16.954Z,48.00
2022-08-30T18:26:44.837Z,48.68
2022-08-30T18:29:14.203Z,49.39
2022-08-30T18:31:41.932Z,49.75
2022-08-30T18:34:12.512Z,49.39
2022-08-30T18:36:40.341Z,49.21
2022-08-30T18:39:09.137Z,49.51
2022-08-30T18:41:42.155Z,50.61
2022-08-30T18:44:27.223Z,51.21
2022-08-30T18:47:00.426Z,50.86
2022-08-30T18:49:28.610Z,50.62
2022-08-30T18:51:56.379Z,51.82
2022-08-30T18:54:24.388Z,52.18
2022-08-30T18:56:52.023Z,52.22
2022-08-30T18:59:20.347Z,52.13
2022-08-30T19:01:48.822Z,52.30
2022-08-30T19:04:22.349Z,52.99
2022-08-30T19:06:58.175Z,52.94
2022-08-30T19:09:27.129Z,53.19
2022-08-30T19:11:55.705Z,52.73
2022-08-30T19:14:23.426Z,52.90
2022-08-30T19:16:56.213Z,53.45
2022-08-30T19:19:25.552Z,52.79
2022-08-30T19:21:53.279Z,53.10
2022-08-30T19:24:21.921Z,53.84
2022-08-30T19:26:49.781Z,54.06
2022-08-30T19:29:17.488Z,53.92
2022-08-30T19:31:45.109Z,53.69
2022-08-30T19:34:13.483Z,54.08
2022-08-30T19:36:42.422Z,54.57
2022-08-30T19:39:12.695Z,54.57
2022-08-30T19:41:40.721Z,54.96
2022-08-30T19:44:08.375Z,55.21
2022-08-30T19:46:37.528Z,55.91
2022-08-30T19:49:08.399Z,55.47
2022-08-30T19:51:37.090Z,55.69
2022-08-30T19:54:07.080Z,55.59
2022-08-30T19:56:35.768Z,55.71
2022-08-30T19:59:03.908Z,56.72
2022-08-30T20:01:33.608Z,56.16
2022-08-30T20:04:02.570Z,56.28
2022-08-30T20:06:30.988Z,57.05
2022-08-30T20:09:00.489Z,56.79
2022-08-30T20:11:29.814Z,57.50
2022-08-30T20:13:58.620Z,56.78
2022-08-30T20:19:16.996Z,57.29
2022-08-30T20:21:47.029Z,56.52
2022-08-30T20:24:17.682Z,57.12
2022-08-30T20:24:25.138Z,34.30
2022-08-30T20:26:46.658Z,57.88
2022-08-30T20:29:14.322Z,57.62
2022-08-30T20:31:41.927Z,57.67
2022-08-30T20:34:09.703Z,57.74
2022-08-30T20:36:39.722Z,57.43
2022-08-30T20:39:09.583Z,57.58
2022-08-30T20:41:38.185Z,57.79
2022-08-30T20:44:11.989Z,58.16
2022-08-30T20:46:43.760Z,57.76
2022-08-30T20:49:12.125Z,56.83
2022-08-30T20:51:39.753Z,58.18
2022-08-30T20:54:08.844Z,58.49
2022-08-30T20:56:36.838Z,58.24
2022-08-30T20:59:05.788Z,57.93
2022-08-30T21:01:38.345Z,57.69
2022-08-30T21:04:06.778Z,57.84
2022-08-30T21:06:37.354Z,57.55
2022-08-30T21:09:06.476Z,57.23
2022-08-30T21:11:34.645Z,57.23
2022-08-30T21:14:02.878Z,58.12
2022-08-30T21:16:32.023Z,58.53
2022-08-30T21:19:01.751Z,58.92
2022-08-30T21:21:30.402Z,59.21
2022-08-30T21:24:00.414Z,58.53
2022-08-30T21:26:28.740Z,57.89
2022-08-30T21:28:57.465Z,58.46
2022-08-30T21:31:27.203Z,58.20
2022-08-30T21:33:56.131Z,58.13
2022-08-30T21:36:44.581Z,59.37
2022-08-30T21:39:15.380Z,59.18
2022-08-30T21:41:43.878Z,58.69
2022-08-30T21:44:14.846Z,59.09
2022-08-30T21:46:43.292Z,58.64
2022-08-30T21:49:12.649Z,58.46
2022-08-30T21:51:44.260Z,59.22
2022-08-30T21:54:13.941Z,59.32
2022-08-30T21:56:43.461Z,59.51
2022-08-30T21:59:12.519Z,59.33
2022-08-30T22:01:43.023Z,59.96
2022-08-30T22:04:11.878Z,59.74
2022-08-30T22:06:45.107Z,59.91
2022-08-30T22:09:14.376Z,60.55
2022-08-30T22:11:43.075Z,60.22
2022-08-30T22:14:14.524Z,60.43
2022-08-30T22:16:44.464Z,60.31
2022-08-30T22:19:12.641Z,59.80
2022-08-30T22:21:42.734Z,60.47
2022-08-30T22:24:10.953Z,60.93
2022-08-30T22:26:39.462Z,61.21
2022-08-30T22:29:08.914Z,60.95
2022-08-30T22:31:41.291Z,61.14
2022-08-30T22:34:10.932Z,61.31
2022-08-30T22:36:39.459Z,61.04
2022-08-30T22:39:09.778Z,61.26
2022-08-30T22:41:38.063Z,61.20
2022-08-30T22:44:06.316Z,61.98
2022-08-30T22:46:36.506Z,61.98
2022-08-30T22:49:05.585Z,63.13
2022-08-30T22:51:33.654Z,62.71
2022-08-30T22:54:01.808Z,62.14
2022-08-30T22:56:31.940Z,62.55
2022-08-30T22:58:59.587Z,62.28
2022-08-30T23:01:30.369Z,62.49
2022-08-30T23:03:58.905Z,58.40
2022-08-30T23:06:26.705Z,57.53
2022-08-30T23:08:55.419Z,57.57
2022-08-30T23:11:24.401Z,60.93
2022-08-30T23:13:56.728Z,64.99
2022-08-30T23:16:25.715Z,68.16
2022-08-30T23:18:53.471Z,71.29
2022-08-30T23:21:23.289Z,74.58
2022-08-30T23:24:09.789Z,78.31
2022-08-30T23:26:55.024Z,81.82
2022-08-30T23:29:42.188Z,82.94
2022-08-30T23:32:27.692Z,83.54
2022-08-30T23:35:12.789Z,85.59
2022-08-30T23:37:58.314Z,85.71
2022-08-30T23:40:43.878Z,86.78
2022-08-30T23:43:29.416Z,87.28
2022-08-30T23:46:19.579Z,87.37
2022-08-30T23:49:05.558Z,86.37
2022-08-30T23:51:50.843Z,85.81
2022-08-30T23:54:36.237Z,85.60
2022-08-30T23:57:21.676Z,86.45
